createdAt,value
2023-05-09T00:00:43.826Z,1074.00
2023-05-09T00:01:43.885Z,1067.00
2023-05-09T00:02:43.874Z,1077.00
2023-05-09T00:03:43.837Z,1080.00
2023-05-09T00:04:43.920Z,1086.00
2023-05-09T00:05:43.838Z,1078.00
2023-05-09T00:06:43.852Z,1080.00
2023-05-09T00:07:43.852Z,1078.00
2023-05-09T00:08:43.860Z,1072.00
2023-05-09T00:09:43.868Z,1077.00
2023-05-09T00:10:43.854Z,1063.00
2023-05-09T00:11:43.933Z,1069.00
2023-05-09T00:12:43.869Z,1071.00
2023-05-09T00:13:43.806Z,1059.00
2023-05-09T00:14:43.793Z,1068.00
2023-05-09T00:15:43.778Z,1069.00
2023-05-09T00:16:43.794Z,1056.00
2023-05-09T00:17:43.812Z,1054.00
2023-05-09T00:18:43.754Z,1066.00
2023-05-09T00:19:43.713Z,1037.00
2023-05-09T00:20:43.715Z,1062.00
2023-05-09T00:21:43.700Z,1076.00
2023-05-09T00:22:43.685Z,1070.00
2023-05-09T00:23:43.681Z,1065.00
2023-05-09T00:24:43.651Z,1068.00
2023-05-09T00:25:43.650Z,1062.00
2023-05-09T00:26:43.643Z,1047.00
2023-05-09T00:27:43.701Z,1058.00
2023-05-09T00:28:43.621Z,1050.00
2023-05-09T00:29:43.606Z,1054.00
2023-05-09T00:30:43.609Z,1052.00
2023-05-09T00:31:43.587Z,1048.00
2023-05-09T00:32:43.593Z,1055.00
2023-05-09T00:33:43.524Z,1044.00
2023-05-09T00:34:43.515Z,1057.00
2023-05-09T00:35:43.507Z,1052.00
2023-05-09T00:36:43.535Z,1039.00
2023-05-09T00:37:43.497Z,1060.00
2023-05-09T00:38:43.510Z,1047.00
2023-05-09T00:39:43.467Z,1027.00
2023-05-09T00:40:43.472Z,1058.00
2023-05-09T00:41:43.426Z,1044.00
2023-05-09T00:42:43.433Z,1034.00
2023-05-09T00:43:43.491Z,1059.00
2023-05-09T00:44:43.382Z,1043.00
2023-05-09T00:45:43.400Z,1040.00
2023-05-09T00:46:43.370Z,1036.00
2023-05-09T00:47:43.349Z,1024.00
2023-05-09T00:48:43.330Z,1033.00
2023-05-09T00:49:43.301Z,1034.00
2023-05-09T00:50:43.274Z,1031.00
2023-05-09T00:51:43.248Z,1022.00
2023-05-09T00:52:43.237Z,1038.00
2023-05-09T00:53:43.242Z,1026.00
2023-05-09T00:54:43.219Z,1035.00
2023-05-09T00:55:43.198Z,1016.00
2023-05-09T00:56:43.194Z,1024.00
2023-05-09T00:57:43.181Z,1036.00
2023-05-09T00:58:43.175Z,1029.00
2023-05-09T00:59:43.264Z,1036.00
2023-05-09T01:00:43.201Z,1030.00
2023-05-09T01:01:43.215Z,1031.00
2023-05-09T01:02:43.291Z,1019.00
2023-05-09T01:03:43.354Z,1017.00
2023-05-09T01:04:44.115Z,1029.00
2023-05-09T01:05:43.129Z,1027.00
2023-05-09T01:06:43.146Z,1010.00
2023-05-09T01:07:43.100Z,1017.00
2023-05-09T01:08:43.131Z,1009.00
2023-05-09T01:09:43.104Z,1001.00
2023-05-09T01:10:43.112Z,1029.00
2023-05-09T01:11:43.076Z,1021.00
2023-05-09T01:12:43.084Z,1019.00
2023-05-09T01:13:43.032Z,1012.00
2023-05-09T01:14:43.060Z,1019.00
2023-05-09T01:15:43.106Z,1003.00
2023-05-09T01:16:43.010Z,1030.00
2023-05-09T01:17:43.004Z,1024.00
2023-05-09T01:18:42.979Z,1012.00
2023-05-09T01:19:42.944Z,1015.00
2023-05-09T01:20:42.922Z,1014.00
2023-05-09T01:21:42.901Z,1005.00
2023-05-09T01:22:42.905Z,1011.00
2023-05-09T01:23:42.880Z,1015.00
2023-05-09T01:24:42.878Z,1017.00
2023-05-09T01:25:42.852Z,995.00
2023-05-09T01:26:42.842Z,1010.00
2023-05-09T01:27:42.825Z,1006.00
2023-05-09T01:28:42.817Z,1016.00
2023-05-09T01:29:42.814Z,995.00
2023-05-09T01:30:42.811Z,1004.00
2023-05-09T01:31:42.899Z,1004.00
2023-05-09T01:32:42.869Z,1003.00
2023-05-09T01:33:42.762Z,994.00
2023-05-09T01:34:42.744Z,994.00
2023-05-09T01:35:42.739Z,999.00
2023-05-09T01:36:42.706Z,1011.00
2023-05-09T01:37:42.723Z,1008.00
2023-05-09T01:38:42.683Z,984.00
2023-05-09T01:39:42.697Z,1010.00
2023-05-09T01:40:42.662Z,997.00
2023-05-09T01:41:42.672Z,991.00
2023-05-09T01:42:42.670Z,984.00
2023-05-09T01:43:42.722Z,976.00
2023-05-09T01:44:42.634Z,986.00
2023-05-09T01:45:42.616Z,974.00
2023-05-09T01:46:42.628Z,991.00
2023-05-09T01:47:42.710Z,986.00
2023-05-09T01:48:42.568Z,968.00
2023-05-09T01:49:42.557Z,980.00
2023-05-09T01:50:42.563Z,986.00
2023-05-09T01:51:43.956Z,982.00
2023-05-09T01:52:42.559Z,969.00
2023-05-09T01:53:42.537Z,971.00
2023-05-09T01:54:42.542Z,981.00
2023-05-09T01:55:42.531Z,982.00
2023-05-09T01:56:42.539Z,982.00
2023-05-09T01:57:42.522Z,972.00
2023-05-09T01:58:42.525Z,993.00
2023-05-09T01:59:42.495Z,977.00
2023-05-09T02:00:42.543Z,972.00
2023-05-09T02:01:42.489Z,966.00
2023-05-09T02:02:42.622Z,972.00
2023-05-09T02:03:42.575Z,978.00
2023-05-09T02:04:42.500Z,976.00
2023-05-09T02:05:42.476Z,969.00
2023-05-09T02:06:42.469Z,967.00
2023-05-09T02:07:42.446Z,965.00
2023-05-09T02:08:42.455Z,971.00
2023-05-09T02:09:42.426Z,974.00
2023-05-09T02:10:42.426Z,960.00
2023-05-09T02:11:42.420Z,980.00
2023-05-09T02:12:42.470Z,955.00
2023-05-09T02:13:42.396Z,978.00
2023-05-09T02:14:42.378Z,969.00
2023-05-09T02:15:42.373Z,964.00
2023-05-09T02:16:42.371Z,977.00
2023-05-09T02:17:42.462Z,964.00
2023-05-09T02:18:42.391Z,975.00
2023-05-09T02:19:42.535Z,963.00
2023-05-09T02:20:42.397Z,940.00
2023-05-09T02:21:42.424Z,962.00
2023-05-09T02:22:42.407Z,964.00
2023-05-09T02:23:42.418Z,951.00
2023-05-09T02:24:42.434Z,952.00
2023-05-09T02:25:42.449Z,956.00
2023-05-09T02:26:42.482Z,945.00
2023-05-09T02:27:42.509Z,965.00
2023-05-09T02:28:42.532Z,949.00
2023-05-09T02:29:42.560Z,958.00
2023-05-09T02:30:42.569Z,944.00
2023-05-09T02:31:42.605Z,952.00
2023-05-09T02:32:42.662Z,957.00
2023-05-09T02:33:42.647Z,949.00
2023-05-09T02:34:42.704Z,950.00
2023-05-09T02:35:42.772Z,949.00
2023-05-09T02:36:42.746Z,938.00
2023-05-09T02:37:42.751Z,940.00
2023-05-09T02:38:42.811Z,946.00
2023-05-09T02:39:42.763Z,938.00
2023-05-09T02:40:42.826Z,958.00
2023-05-09T02:41:42.828Z,956.00
2023-05-09T02:42:42.833Z,944.00
2023-05-09T02:43:42.841Z,940.00
2023-05-09T02:44:42.834Z,945.00
2023-05-09T02:45:42.911Z,937.00
2023-05-09T02:46:42.842Z,944.00
2023-05-09T02:47:42.872Z,944.00
2023-05-09T02:48:42.846Z,941.00
2023-05-09T02:49:42.858Z,942.00
2023-05-09T02:50:42.924Z,951.00
2023-05-09T02:51:42.972Z,945.00
2023-05-09T02:52:42.882Z,950.00
2023-05-09T02:53:42.912Z,946.00
2023-05-09T02:54:42.899Z,945.00
2023-05-09T02:55:42.926Z,925.00
2023-05-09T02:56:42.914Z,941.00
2023-05-09T02:57:42.941Z,941.00
2023-05-09T02:58:42.947Z,950.00
2023-05-09T02:59:42.937Z,942.00
2023-05-09T03:00:42.957Z,930.00
2023-05-09T03:01:42.969Z,926.00
2023-05-09T03:02:42.996Z,932.00
2023-05-09T03:03:43.038Z,939.00
2023-05-09T03:04:42.960Z,908.00
2023-05-09T03:05:42.987Z,933.00
2023-05-09T03:06:43.010Z,938.00
2023-05-09T03:07:43.067Z,927.00
2023-05-09T03:08:43.011Z,914.00
2023-05-09T03:09:42.991Z,921.00
2023-05-09T03:10:43.038Z,921.00
2023-05-09T03:11:43.019Z,923.00
2023-05-09T03:12:43.070Z,927.00
2023-05-09T03:13:43.046Z,919.00
2023-05-09T03:14:43.076Z,931.00
2023-05-09T03:15:43.089Z,941.00
2023-05-09T03:16:43.097Z,924.00
2023-05-09T03:17:43.150Z,936.00
2023-05-09T03:18:43.130Z,927.00
2023-05-09T03:19:43.123Z,928.00
2023-05-09T03:20:43.134Z,914.00
2023-05-09T03:21:43.134Z,920.00
2023-05-09T03:22:43.154Z,911.00
2023-05-09T03:23:43.246Z,929.00
2023-05-09T03:24:43.146Z,916.00
2023-05-09T03:25:43.155Z,918.00
2023-05-09T03:26:43.133Z,910.00
2023-05-09T03:27:43.176Z,911.00
2023-05-09T03:28:43.150Z,915.00
2023-05-09T03:29:43.175Z,920.00
2023-05-09T03:30:43.171Z,906.00
2023-05-09T03:31:43.290Z,903.00
2023-05-09T03:32:43.270Z,911.00
2023-05-09T03:33:43.206Z,914.00
2023-05-09T03:34:43.196Z,899.00
2023-05-09T03:35:43.201Z,897.00
2023-05-09T03:36:43.208Z,917.00
2023-05-09T03:37:43.207Z,903.00
2023-05-09T03:38:43.219Z,908.00
2023-05-09T03:39:43.299Z,909.00
2023-05-09T03:40:43.221Z,912.00
2023-05-09T03:41:43.209Z,912.00
2023-05-09T03:42:43.219Z,894.00
2023-05-09T03:43:43.210Z,888.00
2023-05-09T03:44:43.216Z,915.00
2023-05-09T03:45:43.211Z,903.00
2023-05-09T03:46:43.266Z,915.00
2023-05-09T03:47:43.206Z,906.00
2023-05-09T03:48:43.233Z,903.00
2023-05-09T03:49:43.202Z,897.00
2023-05-09T03:50:43.241Z,909.00
2023-05-09T03:51:43.207Z,897.00
2023-05-09T03:52:43.262Z,891.00
2023-05-09T03:53:43.259Z,876.00
2023-05-09T03:54:43.287Z,905.00
2023-05-09T03:55:43.366Z,885.00
2023-05-09T03:56:43.291Z,889.00
2023-05-09T03:57:43.282Z,885.00
2023-05-09T03:58:43.283Z,896.00
2023-05-09T03:59:43.322Z,893.00
2023-05-09T04:00:43.290Z,897.00
2023-05-09T04:01:43.305Z,883.00
2023-05-09T04:02:43.320Z,892.00
2023-05-09T04:03:43.453Z,891.00
2023-05-09T04:04:43.295Z,894.00
2023-05-09T04:05:43.305Z,895.00
2023-05-09T04:06:43.302Z,883.00
2023-05-09T04:07:43.318Z,869.00
2023-05-09T04:08:43.308Z,871.00
2023-05-09T04:09:43.319Z,885.00
2023-05-09T04:10:43.281Z,883.00
2023-05-09T04:11:43.398Z,879.00
2023-05-09T04:12:43.302Z,889.00
2023-05-09T04:13:43.329Z,866.00
2023-05-09T04:14:43.304Z,886.00
2023-05-09T04:15:43.295Z,865.00
2023-05-09T04:16:43.277Z,862.00
2023-05-09T04:17:43.353Z,891.00
2023-05-09T04:18:43.255Z,873.00
2023-05-09T04:19:43.269Z,881.00
2023-05-09T04:20:43.241Z,887.00
2023-05-09T04:21:43.236Z,889.00
2023-05-09T04:22:45.398Z,857.00
2023-05-09T04:23:43.189Z,881.00
2023-05-09T04:24:43.154Z,890.00
2023-05-09T04:25:43.101Z,881.00
2023-05-09T04:26:43.068Z,881.00
2023-05-09T04:27:43.109Z,863.00
2023-05-09T04:28:42.976Z,878.00
2023-05-09T04:29:42.936Z,872.00
2023-05-09T04:30:42.909Z,874.00
2023-05-09T04:31:42.998Z,871.00
2023-05-09T04:32:42.841Z,854.00
2023-05-09T04:33:42.773Z,860.00
2023-05-09T04:34:42.726Z,877.00
2023-05-09T04:35:42.668Z,862.00
2023-05-09T04:36:42.623Z,868.00
2023-05-09T04:37:42.575Z,860.00
2023-05-09T04:38:42.540Z,883.00
2023-05-09T04:39:42.484Z,851.00
2023-05-09T04:40:42.438Z,837.00
2023-05-09T04:41:43.393Z,839.00
2023-05-09T04:42:42.348Z,845.00
2023-05-09T04:43:42.413Z,850.00
2023-05-09T04:44:42.274Z,856.00
2023-05-09T04:45:42.224Z,861.00
2023-05-09T04:46:42.247Z,872.00
2023-05-09T04:47:42.189Z,860.00
2023-05-09T04:48:42.091Z,839.00
2023-05-09T04:49:42.090Z,859.00
2023-05-09T04:50:41.991Z,865.00
2023-05-09T04:51:41.955Z,856.00
2023-05-09T04:52:41.906Z,851.00
2023-05-09T04:53:41.867Z,829.00
2023-05-09T04:54:41.850Z,860.00
2023-05-09T04:55:41.820Z,851.00
2023-05-09T04:56:41.802Z,837.00
2023-05-09T04:57:41.799Z,853.00
2023-05-09T04:58:41.758Z,844.00
2023-05-09T04:59:41.826Z,837.00
2023-05-09T05:00:41.719Z,843.00
2023-05-09T05:01:41.750Z,845.00
2023-05-09T05:02:41.731Z,840.00
2023-05-09T05:03:41.701Z,835.00
2023-05-09T05:04:41.756Z,866.00
2023-05-09T05:05:41.817Z,837.00
2023-05-09T05:06:41.723Z,853.00
2023-05-09T05:07:41.698Z,828.00
2023-05-09T05:08:41.719Z,820.00
2023-05-09T05:09:41.699Z,841.00
2023-05-09T05:10:41.688Z,847.00
2023-05-09T05:11:47.494Z,838.00
2023-05-09T05:12:42.688Z,838.00
2023-05-09T05:13:41.606Z,838.00
2023-05-09T05:14:41.584Z,842.00
2023-05-09T05:15:41.616Z,835.00
2023-05-09T05:16:41.521Z,832.00
2023-05-09T05:17:41.514Z,837.00
2023-05-09T05:18:41.417Z,845.00
2023-05-09T05:19:41.365Z,823.00
2023-05-09T05:20:41.325Z,801.00
2023-05-09T05:21:41.285Z,812.00
2023-05-09T05:22:41.243Z,808.00
2023-05-09T05:23:41.185Z,786.00
2023-05-09T05:24:41.175Z,801.00
2023-05-09T05:25:41.143Z,801.00
2023-05-09T05:26:41.156Z,839.00
2023-05-09T05:27:41.153Z,813.00
2023-05-09T05:28:41.170Z,943.00
2023-05-09T05:29:41.169Z,918.00
2023-05-09T05:30:41.212Z,906.00
2023-05-09T05:31:41.331Z,880.00
2023-05-09T05:32:41.206Z,874.00
2023-05-09T05:33:41.219Z,894.00
2023-05-09T05:34:41.222Z,933.00
2023-05-09T05:35:41.261Z,961.00
2023-05-09T05:36:41.249Z,985.00
2023-05-09T05:37:41.275Z,975.00
2023-05-09T05:38:41.264Z,981.00
2023-05-09T05:39:41.287Z,988.00
2023-05-09T05:40:41.287Z,996.00
2023-05-09T05:41:41.305Z,1002.00
2023-05-09T05:42:41.324Z,995.00
2023-05-09T05:43:41.324Z,1003.00
2023-05-09T05:44:41.328Z,1014.00
2023-05-09T05:45:41.374Z,995.00
2023-05-09T05:46:41.331Z,995.00
2023-05-09T05:47:41.430Z,994.00
2023-05-09T05:48:41.332Z,1006.00
2023-05-09T05:49:42.230Z,1007.00
2023-05-09T05:50:41.306Z,1002.00
2023-05-09T05:51:41.315Z,991.00
2023-05-09T05:52:41.319Z,998.00
2023-05-09T05:53:41.305Z,1002.00
2023-05-09T05:54:41.319Z,997.00
2023-05-09T05:55:41.306Z,996.00
2023-05-09T05:56:41.310Z,1010.00
2023-05-09T05:57:41.311Z,1001.00
2023-05-09T05:58:41.305Z,992.00
2023-05-09T05:59:41.305Z,1018.00
2023-05-09T06:00:41.291Z,1005.00
2023-05-09T06:01:41.457Z,1007.00
2023-05-09T06:02:41.427Z,1009.00
2023-05-09T06:03:41.512Z,1006.00
2023-05-09T06:04:41.269Z,1014.00
2023-05-09T06:05:41.261Z,1013.00
2023-05-09T06:06:41.246Z,1003.00
2023-05-09T06:07:41.223Z,992.00
2023-05-09T06:08:41.218Z,998.00
2023-05-09T06:09:41.227Z,995.00
2023-05-09T06:10:41.209Z,988.00
2023-05-09T06:11:41.224Z,997.00
2023-05-09T06:12:41.230Z,1002.00
2023-05-09T06:13:41.210Z,1005.00
2023-05-09T06:14:41.160Z,990.00
2023-05-09T06:15:41.189Z,1013.00
2023-05-09T06:16:41.160Z,989.00
2023-05-09T06:17:41.135Z,999.00
2023-05-09T06:18:41.097Z,992.00
2023-05-09T06:19:41.164Z,982.00
2023-05-09T06:20:41.064Z,990.00
2023-05-09T06:21:41.126Z,972.00
2023-05-09T06:22:41.052Z,971.00
2023-05-09T06:23:51.003Z,981.00
2023-05-09T06:24:42.001Z,982.00
2023-05-09T06:25:40.956Z,984.00
2023-05-09T06:26:40.902Z,982.00
2023-05-09T06:27:40.883Z,991.00
2023-05-09T06:28:40.817Z,987.00
2023-05-09T06:29:40.775Z,985.00
2023-05-09T06:30:40.739Z,996.00
2023-05-09T06:31:40.740Z,984.00
2023-05-09T06:32:40.655Z,982.00
2023-05-09T06:33:40.607Z,971.00
2023-05-09T06:34:40.604Z,970.00
2023-05-09T06:35:40.740Z,983.00
2023-05-09T06:36:40.594Z,970.00
2023-05-09T06:37:40.606Z,970.00
2023-05-09T06:38:40.622Z,970.00
2023-05-09T06:39:40.609Z,970.00
2023-05-09T06:40:40.750Z,976.00
2023-05-09T06:41:40.644Z,978.00
2023-05-09T06:42:40.687Z,958.00
2023-05-09T06:43:40.695Z,970.00
2023-05-09T06:44:40.719Z,970.00
2023-05-09T06:45:40.742Z,957.00
2023-05-09T06:46:40.799Z,964.00
2023-05-09T06:47:40.804Z,975.00
2023-05-09T06:48:40.781Z,964.00
2023-05-09T06:49:40.790Z,950.00
2023-05-09T06:50:40.807Z,956.00
2023-05-09T06:51:40.907Z,956.00
2023-05-09T06:52:40.828Z,947.00
2023-05-09T06:53:40.853Z,969.00
2023-05-09T06:54:40.940Z,962.00
2023-05-09T06:55:40.880Z,958.00
2023-05-09T06:56:40.901Z,942.00
2023-05-09T06:57:40.953Z,954.00
2023-05-09T06:58:40.926Z,943.00
2023-05-09T06:59:40.980Z,940.00
2023-05-09T07:00:40.940Z,939.00
2023-05-09T07:01:41.111Z,942.00
2023-05-09T07:02:41.035Z,949.00
2023-05-09T07:03:40.992Z,935.00
2023-05-09T07:04:41.050Z,941.00
2023-05-09T07:05:41.016Z,933.00
2023-05-09T07:06:41.039Z,946.00
2023-05-09T07:07:41.142Z,939.00
2023-05-09T07:08:41.046Z,940.00
2023-05-09T07:09:41.055Z,936.00
2023-05-09T07:10:41.066Z,932.00
2023-05-09T07:11:41.082Z,939.00
2023-05-09T07:12:41.130Z,923.00
2023-05-09T07:13:41.126Z,936.00
2023-05-09T07:14:41.169Z,933.00
2023-05-09T07:15:42.968Z,926.00
2023-05-09T07:16:41.318Z,935.00
2023-05-09T07:17:41.229Z,933.00
2023-05-09T07:18:41.235Z,986.00
2023-05-09T07:19:41.240Z,957.00
2023-05-09T07:20:41.245Z,950.00
2023-05-09T07:21:41.241Z,994.00
2023-05-09T07:22:41.328Z,989.00
2023-05-09T07:23:41.362Z,969.00
2023-05-09T07:24:41.274Z,912.00
2023-05-09T07:25:41.268Z,830.00
2023-05-09T07:26:41.267Z,775.00
2023-05-09T07:27:41.318Z,728.00
2023-05-09T07:28:41.295Z,672.00
2023-05-09T07:29:41.328Z,678.00
2023-05-09T07:30:41.314Z,727.00
2023-05-09T07:31:41.361Z,724.00
2023-05-09T07:32:41.356Z,788.00
2023-05-09T07:33:41.358Z,835.00
2023-05-09T07:34:41.335Z,885.00
2023-05-09T07:35:41.318Z,884.00
2023-05-09T07:36:41.293Z,856.00
2023-05-09T07:37:42.283Z,847.00
2023-05-09T07:38:41.366Z,860.00
2023-05-09T07:39:41.458Z,873.00
2023-05-09T07:40:41.367Z,878.00
2023-05-09T07:41:41.393Z,896.00
2023-05-09T07:42:41.378Z,889.00
2023-05-09T07:43:41.385Z,915.00
2023-05-09T07:44:42.286Z,911.00
2023-05-09T07:45:41.452Z,981.00
2023-05-09T07:46:41.353Z,980.00
2023-05-09T07:47:41.368Z,1020.00
2023-05-09T07:48:41.344Z,1010.00
2023-05-09T07:49:41.321Z,1066.00
2023-05-09T07:50:41.319Z,1068.00
2023-05-09T07:51:41.304Z,1117.00
2023-05-09T07:52:41.280Z,1141.00
2023-05-09T07:53:41.221Z,1170.00
2023-05-09T07:54:41.229Z,1210.00
2023-05-09T07:55:41.260Z,1223.00
2023-05-09T07:56:41.170Z,1265.00
2023-05-09T07:57:41.813Z,1288.00
2023-05-09T07:58:41.087Z,1306.00
2023-05-09T07:59:41.117Z,1355.00
2023-05-09T08:00:41.026Z,1373.00
2023-05-09T08:01:40.979Z,1369.00
2023-05-09T08:02:41.086Z,1376.00
2023-05-09T08:03:40.941Z,1386.00
2023-05-09T08:04:41.671Z,1400.00
2023-05-09T08:05:40.846Z,1415.00
2023-05-09T08:06:40.796Z,1418.00
2023-05-09T08:07:40.764Z,1418.00
2023-05-09T08:08:40.732Z,1395.00
2023-05-09T08:09:40.708Z,1400.00
2023-05-09T08:10:40.674Z,1387.00
2023-05-09T08:11:41.382Z,1370.00
2023-05-09T08:12:40.644Z,1353.00
2023-05-09T08:13:40.576Z,1383.00
2023-05-09T08:14:40.520Z,1320.00
2023-05-09T08:15:40.590Z,1315.00
2023-05-09T08:16:40.530Z,1292.00
2023-05-09T08:17:40.539Z,1304.00
2023-05-09T08:18:40.410Z,1300.00
2023-05-09T08:19:40.395Z,1130.00
2023-05-09T08:20:40.366Z,1035.00
2023-05-09T08:21:40.472Z,1100.00
2023-05-09T08:22:40.343Z,1066.00
2023-05-09T08:23:40.470Z,975.00
2023-05-09T08:24:40.534Z,794.00
2023-05-09T08:25:40.261Z,705.00
2023-05-09T08:26:40.276Z,741.00
2023-05-09T08:27:40.325Z,791.00
2023-05-09T08:28:40.278Z,812.00
2023-05-09T08:29:40.215Z,846.00
2023-05-09T08:30:40.224Z,833.00
2023-05-09T08:31:40.189Z,839.00
2023-05-09T08:32:40.227Z,830.00
2023-05-09T08:33:41.970Z,828.00
2023-05-09T08:34:40.133Z,855.00
2023-05-09T08:35:40.084Z,837.00
2023-05-09T08:36:40.054Z,832.00
2023-05-09T08:37:40.006Z,867.00
2023-05-09T08:38:39.989Z,854.00
2023-05-09T08:39:39.953Z,879.00
2023-05-09T08:40:39.927Z,866.00
2023-05-09T08:41:39.878Z,867.00
2023-05-09T08:42:39.853Z,880.00
2023-05-09T08:43:39.892Z,861.00
2023-05-09T08:44:39.781Z,841.00
2023-05-09T08:45:39.755Z,854.00
2023-05-09T08:46:39.836Z,871.00
2023-05-09T08:47:39.760Z,837.00
2023-05-09T08:48:39.682Z,836.00
2023-05-09T08:49:39.653Z,823.00
2023-05-09T08:50:39.597Z,820.00
2023-05-09T08:51:39.572Z,839.00
2023-05-09T08:52:39.531Z,772.00
2023-05-09T08:53:39.523Z,734.00
2023-05-09T08:54:39.481Z,755.00
2023-05-09T08:55:39.473Z,820.00
2023-05-09T08:56:39.454Z,818.00
2023-05-09T08:57:39.421Z,812.00
2023-05-09T08:58:39.834Z,859.00
2023-05-09T08:59:39.466Z,884.00
2023-05-09T09:00:39.361Z,886.00
2023-05-09T09:01:39.330Z,872.00
2023-05-09T09:02:39.393Z,907.00
2023-05-09T09:03:39.302Z,846.00
2023-05-09T09:04:39.396Z,867.00
2023-05-09T09:05:41.322Z,902.00
2023-05-09T09:06:39.214Z,915.00
2023-05-09T09:07:39.149Z,903.00
2023-05-09T09:08:39.087Z,972.00
2023-05-09T09:09:39.057Z,1039.00
2023-05-09T09:10:38.962Z,1074.00
2023-05-09T09:11:39.077Z,1074.00
2023-05-09T09:12:38.844Z,1175.00
2023-05-09T09:13:38.776Z,1164.00
2023-05-09T09:14:38.909Z,1225.00
2023-05-09T09:15:38.720Z,1262.00
2023-05-09T09:16:38.620Z,1238.00
2023-05-09T09:17:39.408Z,1107.00
2023-05-09T09:18:39.745Z,1107.00
2023-05-09T09:19:38.499Z,1121.00
2023-05-09T09:20:38.280Z,1095.00
2023-05-09T09:21:38.233Z,1061.00
2023-05-09T09:22:38.168Z,1036.00
2023-05-09T09:23:38.109Z,1043.00
2023-05-09T09:24:38.026Z,1001.00
2023-05-09T09:25:37.971Z,881.00
2023-05-09T09:26:37.875Z,861.00
2023-05-09T09:27:38.356Z,916.00
2023-05-09T09:28:37.757Z,939.00
2023-05-09T09:29:37.708Z,977.00
2023-05-09T09:30:37.632Z,988.00
2023-05-09T09:31:37.740Z,1032.00
2023-05-09T09:32:37.591Z,1006.00
2023-05-09T09:33:37.441Z,1067.00
2023-05-09T09:34:37.384Z,1059.00
2023-05-09T09:35:37.313Z,1090.00
2023-05-09T09:36:37.288Z,1120.00
2023-05-09T09:37:37.277Z,1082.00
2023-05-09T09:38:37.239Z,1125.00
2023-05-09T09:39:37.238Z,1135.00
2023-05-09T09:40:37.211Z,1145.00
2023-05-09T09:41:37.179Z,1125.00
2023-05-09T09:42:37.186Z,1123.00
2023-05-09T09:43:37.138Z,1134.00
2023-05-09T09:44:37.150Z,1173.00
2023-05-09T09:45:37.144Z,1162.00
2023-05-09T09:46:37.330Z,1142.00
2023-05-09T09:47:37.174Z,1165.00
2023-05-09T09:48:37.033Z,1132.00
2023-05-09T09:49:37.052Z,1132.00
2023-05-09T09:50:37.086Z,1024.00
2023-05-09T09:51:37.021Z,957.00
2023-05-09T09:52:36.977Z,893.00
2023-05-09T09:53:36.975Z,880.00
2023-05-09T09:54:36.961Z,912.00
2023-05-09T09:55:36.924Z,936.00
2023-05-09T09:56:36.916Z,914.00
2023-05-09T09:57:36.891Z,913.00
2023-05-09T09:58:36.871Z,919.00
2023-05-09T09:59:36.850Z,846.00
2023-05-09T10:00:36.839Z,872.00
2023-05-09T10:01:36.872Z,917.00
2023-05-09T10:02:36.847Z,878.00
2023-05-09T10:03:36.883Z,855.00
2023-05-09T10:04:36.891Z,751.00
2023-05-09T10:05:36.729Z,735.00
2023-05-09T10:06:36.725Z,726.00
2023-05-09T10:07:36.708Z,656.00
2023-05-09T10:08:36.688Z,646.00
2023-05-09T10:09:36.672Z,652.00
2023-05-09T10:10:36.660Z,676.00
2023-05-09T10:11:36.640Z,743.00
2023-05-09T10:12:36.598Z,796.00
2023-05-09T10:13:36.602Z,842.00
2023-05-09T10:14:36.593Z,835.00
2023-05-09T10:15:49.317Z,860.00
2023-05-09T10:16:43.775Z,861.00
2023-05-09T10:17:37.650Z,863.00
2023-05-09T10:18:37.497Z,872.00
2023-05-09T10:19:36.434Z,885.00
2023-05-09T10:20:36.258Z,846.00
2023-05-09T10:21:36.787Z,869.00
2023-05-09T10:22:36.153Z,867.00
2023-05-09T10:23:36.088Z,872.00
2023-05-09T10:24:36.016Z,899.00
2023-05-09T10:25:35.963Z,902.00
2023-05-09T10:26:35.893Z,899.00
2023-05-09T10:27:35.854Z,880.00
2023-05-09T10:28:35.801Z,876.00
2023-05-09T10:29:35.721Z,873.00
2023-05-09T10:30:35.657Z,875.00
2023-05-09T10:31:35.621Z,888.00
2023-05-09T10:32:35.559Z,890.00
2023-05-09T10:33:35.481Z,886.00
2023-05-09T10:34:35.425Z,878.00
2023-05-09T10:35:35.385Z,877.00
2023-05-09T10:36:35.325Z,886.00
2023-05-09T10:37:35.283Z,874.00
2023-05-09T10:38:35.258Z,873.00
2023-05-09T10:39:35.228Z,868.00
2023-05-09T10:40:35.187Z,874.00
2023-05-09T10:41:35.157Z,886.00
2023-05-09T10:42:35.128Z,859.00
2023-05-09T10:43:36.695Z,885.00
2023-05-09T10:44:35.082Z,886.00
2023-05-09T10:45:35.037Z,886.00
2023-05-09T10:46:35.090Z,876.00
2023-05-09T10:47:35.008Z,875.00
2023-05-09T10:48:34.941Z,869.00
2023-05-09T10:49:36.354Z,874.00
2023-05-09T10:50:34.852Z,878.00
2023-05-09T10:51:34.893Z,877.00
2023-05-09T10:52:34.772Z,884.00
2023-05-09T10:53:34.736Z,878.00
2023-05-09T10:54:34.698Z,882.00
2023-05-09T10:55:34.720Z,876.00
2023-05-09T10:56:34.647Z,873.00
2023-05-09T10:57:34.582Z,867.00
2023-05-09T10:58:34.558Z,873.00
2023-05-09T10:59:34.525Z,867.00
2023-05-09T11:00:34.491Z,867.00
2023-05-09T11:01:34.478Z,861.00
2023-05-09T11:02:34.429Z,872.00
2023-05-09T11:03:34.445Z,874.00
2023-05-09T11:04:34.362Z,871.00
2023-05-09T11:05:34.292Z,862.00
2023-05-09T11:06:34.275Z,857.00
2023-05-09T11:07:34.308Z,870.00
2023-05-09T11:08:34.206Z,870.00
2023-05-09T11:09:34.158Z,865.00
2023-05-09T11:10:34.119Z,857.00
2023-05-09T11:11:34.057Z,873.00
2023-05-09T11:12:34.021Z,878.00
2023-05-09T11:13:34.032Z,899.00
2023-05-09T11:14:33.962Z,874.00
2023-05-09T11:15:33.911Z,889.00
2023-05-09T11:16:33.992Z,880.00
2023-05-09T11:17:33.878Z,866.00
2023-05-09T11:18:33.842Z,885.00
2023-05-09T11:19:33.803Z,874.00
2023-05-09T11:20:33.770Z,886.00
2023-05-09T11:21:33.745Z,860.00
2023-05-09T11:22:33.707Z,879.00
2023-05-09T11:23:33.788Z,878.00
2023-05-09T11:24:33.659Z,869.00
2023-05-09T11:25:33.619Z,857.00
2023-05-09T11:26:33.628Z,860.00
2023-05-09T11:27:33.565Z,864.00
2023-05-09T11:28:33.537Z,865.00
2023-05-09T11:29:33.546Z,857.00
2023-05-09T11:30:33.434Z,861.00
2023-05-09T11:31:33.499Z,854.00
2023-05-09T11:32:33.365Z,865.00
2023-05-09T11:33:33.371Z,868.00
2023-05-09T11:34:33.896Z,883.00
2023-05-09T11:35:33.279Z,875.00
2023-05-09T11:36:33.243Z,867.00
2023-05-09T11:37:33.207Z,872.00
2023-05-09T11:38:33.149Z,863.00
2023-05-09T11:39:33.238Z,875.00
2023-05-09T11:40:33.094Z,860.00
2023-05-09T11:41:33.062Z,877.00
2023-05-09T11:42:33.014Z,864.00
2023-05-09T11:43:33.824Z,867.00
2023-05-09T11:44:32.941Z,870.00
2023-05-09T11:45:33.208Z,857.00
2023-05-09T11:46:33.427Z,867.00
2023-05-09T11:47:32.927Z,866.00
2023-05-09T11:48:32.825Z,878.00
2023-05-09T11:49:32.862Z,871.00
2023-05-09T11:50:32.771Z,868.00
2023-05-09T11:51:32.760Z,867.00
2023-05-09T11:52:32.711Z,868.00
2023-05-09T11:53:32.706Z,863.00
2023-05-09T11:54:32.667Z,865.00
2023-05-09T11:55:32.793Z,859.00
2023-05-09T11:56:32.637Z,858.00
2023-05-09T11:57:32.649Z,864.00
2023-05-09T11:58:32.575Z,858.00
2023-05-09T11:59:32.568Z,845.00
2023-05-09T12:00:32.521Z,872.00
2023-05-09T12:01:32.512Z,853.00
2023-05-09T12:02:32.519Z,861.00
2023-05-09T12:03:32.546Z,859.00
2023-05-09T12:04:32.490Z,860.00
2023-05-09T12:05:32.422Z,859.00
2023-05-09T12:06:32.368Z,846.00
2023-05-09T12:07:33.826Z,855.00
2023-05-09T12:08:32.368Z,850.00
2023-05-09T12:09:32.314Z,837.00
2023-05-09T12:10:32.285Z,834.00
2023-05-09T12:11:32.514Z,827.00
2023-05-09T12:12:32.196Z,837.00
2023-05-09T12:13:33.846Z,838.00
2023-05-09T12:14:32.118Z,841.00
2023-05-09T12:15:32.060Z,840.00
2023-05-09T12:16:32.049Z,841.00
2023-05-09T12:17:31.985Z,839.00
2023-05-09T12:18:31.918Z,855.00
2023-05-09T12:19:31.847Z,845.00
2023-05-09T12:20:31.794Z,845.00
2023-05-09T12:21:31.751Z,837.00
2023-05-09T12:22:31.705Z,851.00